sensor_id;sensor_type;location;lat;lon;timestamp;temperature;humidity
21563;DHT22;10942;47.894;11.424;2022-11-15T00:01:54;2.80;99.90
21563;DHT22;10942;47.894;11.424;2022-11-15T00:04:38;2.50;99.90
21563;DHT22;10942;47.894;11.424;2022-11-15T00:07:22;2.60;99.90
21563;DHT22;10942;47.894;11.424;2022-11-15T00:10:07;2.70;99.90
21563;DHT22;10942;47.894;11.424;2022-11-15T00:12:51;2.60;99.90
21563;DHT22;10942;47.894;11.424;2022-11-15T00:15:36;2.70;99.90
21563;DHT22;10942;47.894;11.424;2022-11-15T00:18:21;2.70;99.90
21563;DHT22;10942;47.894;11.424;2022-11-15T00:21:08;2.60;99.90
21563;DHT22;10942;47.894;11.424;2022-11-15T00:23:53;2.70;99.90
21563;DHT22;10942;47.894;11.424;2022-11-15T00:26:37;2.50;99.90
21563;DHT22;10942;47.894;11.424;2022-11-15T00:29:21;2.40;99.90
21563;DHT22;10942;47.894;11.424;2022-11-15T00:32:06;2.50;99.90
21563;DHT22;10942;47.894;11.424;2022-11-15T00:34:51;2.50;99.90
21563;DHT22;10942;47.894;11.424;2022-11-15T00:37:35;2.50;99.90
21563;DHT22;10942;47.894;11.424;2022-11-15T00:40:19;2.40;99.90
21563;DHT22;10942;47.894;11.424;2022-11-15T00:43:03;2.40;99.90
21563;DHT22;10942;47.894;11.424;2022-11-15T00:45:48;2.40;99.90
21563;DHT22;10942;47.894;11.424;2022-11-15T00:48:32;2.40;99.90
21563;DHT22;10942;47.894;11.424;2022-11-15T00:51:16;2.40;99.90
21563;DHT22;10942;47.894;11.424;2022-11-15T00:56:44;2.20;99.90
21563;DHT22;10942;47.894;11.424;2022-11-15T00:59:29;2.20;99.90
21563;DHT22;10942;47.894;11.424;2022-11-15T01:02:13;2.30;99.90
21563;DHT22;10942;47.894;11.424;2022-11-15T01:04:57;2.30;99.90
21563;DHT22;10942;47.894;11.424;2022-11-15T01:07:42;2.30;99.90
21563;DHT22;10942;47.894;11.424;2022-11-15T01:10:26;2.30;99.90
21563;DHT22;10942;47.894;11.424;2022-11-15T01:13:10;2.30;99.90
21563;DHT22;10942;47.894;11.424;2022-11-15T01:15:54;2.20;99.90
21563;DHT22;10942;47.894;11.424;2022-11-15T01:18:38;2.20;99.90
21563;DHT22;10942;47.894;11.424;2022-11-15T01:21:22;2.20;99.90
21563;DHT22;10942;47.894;11.424;2022-11-15T01:24:07;2.20;99.90
21563;DHT22;10942;47.894;11.424;2022-11-15T01:26:55;2.20;99.90
21563;DHT22;10942;47.894;11.424;2022-11-15T01:29:39;2.20;99.90
21563;DHT22;10942;47.894;11.424;2022-11-15T01:32:24;2.20;99.90
21563;DHT22;10942;47.894;11.424;2022-11-15T01:35:08;2.20;99.90
21563;DHT22;10942;47.894;11.424;2022-11-15T01:37:52;2.10;99.90
21563;DHT22;10942;47.894;11.424;2022-11-15T01:43:23;2.00;99.90
21563;DHT22;10942;47.894;11.424;2022-11-15T01:49:19;1.90;99.90
21563;DHT22;10942;47.894;11.424;2022-11-15T01:52:07;1.90;99.90
21563;DHT22;10942;47.894;11.424;2022-11-15T01:57:56;1.90;99.90
21563;DHT22;10942;47.894;11.424;2022-11-15T02:00:42;1.90;99.90
21563;DHT22;10942;47.894;11.424;2022-11-15T02:03:33;1.90;99.90
21563;DHT22;10942;47.894;11.424;2022-11-15T02:06:20;1.90;99.90
21563;DHT22;10942;47.894;11.424;2022-11-15T02:09:05;1.90;99.90
21563;DHT22;10942;47.894;11.424;2022-11-15T02:11:50;1.90;99.90
21563;DHT22;10942;47.894;11.424;2022-11-15T02:14:37;1.80;99.90
21563;DHT22;10942;47.894;11.424;2022-11-15T02:26:30;1.70;99.90
21563;DHT22;10942;47.894;11.424;2022-11-15T02:32:27;1.70;99.90
21563;DHT22;10942;47.894;11.424;2022-11-15T02:35:27;1.70;99.90
21563;DHT22;10942;47.894;11.424;2022-11-15T02:44:34;1.70;99.90
21563;DHT22;10942;47.894;11.424;2022-11-15T02:47:19;1.70;99.90
21563;DHT22;10942;47.894;11.424;2022-11-15T02:50:10;1.70;99.90
21563;DHT22;10942;47.894;11.424;2022-11-15T02:52:55;1.60;99.90
21563;DHT22;10942;47.894;11.424;2022-11-15T02:55:45;1.50;99.90
21563;DHT22;10942;47.894;11.424;2022-11-15T03:04:55;1.50;99.90
21563;DHT22;10942;47.894;11.424;2022-11-15T03:07:54;1.50;99.90
21563;DHT22;10942;47.894;11.424;2022-11-15T03:14:02;1.50;99.90
21563;DHT22;10942;47.894;11.424;2022-11-15T03:19:57;1.50;99.90
21563;DHT22;10942;47.894;11.424;2022-11-15T03:22:44;1.40;99.90
21563;DHT22;10942;47.894;11.424;2022-11-15T03:25:31;1.40;99.90
21563;DHT22;10942;47.894;11.424;2022-11-15T03:28:23;1.40;99.90
21563;DHT22;10942;47.894;11.424;2022-11-15T03:31:10;1.40;99.90
21563;DHT22;10942;47.894;11.424;2022-11-15T03:34:23;1.40;99.90
21563;DHT22;10942;47.894;11.424;2022-11-15T03:37:12;1.40;99.90
21563;DHT22;10942;47.894;11.424;2022-11-15T03:39:57;1.40;99.90
21563;DHT22;10942;47.894;11.424;2022-11-15T03:42:53;1.30;99.90
21563;DHT22;10942;47.894;11.424;2022-11-15T03:45:54;1.40;99.90
21563;DHT22;10942;47.894;11.424;2022-11-15T03:49:10;1.40;99.90
21563;DHT22;10942;47.894;11.424;2022-11-15T03:51:59;1.40;99.90
21563;DHT22;10942;47.894;11.424;2022-11-15T03:54:55;1.40;99.90
21563;DHT22;10942;47.894;11.424;2022-11-15T03:57:39;1.30;99.90
21563;DHT22;10942;47.894;11.424;2022-11-15T04:00:23;1.30;99.90
21563;DHT22;10942;47.894;11.424;2022-11-15T04:03:07;1.30;99.90
21563;DHT22;10942;47.894;11.424;2022-11-15T04:05:52;1.30;99.90
21563;DHT22;10942;47.894;11.424;2022-11-15T04:08:36;1.30;99.90
21563;DHT22;10942;47.894;11.424;2022-11-15T04:11:20;1.30;99.90
21563;DHT22;10942;47.894;11.424;2022-11-15T04:14:04;1.30;99.90
21563;DHT22;10942;47.894;11.424;2022-11-15T04:16:48;1.20;99.90
21563;DHT22;10942;47.894;11.424;2022-11-15T04:19:32;1.30;99.90
21563;DHT22;10942;47.894;11.424;2022-11-15T04:22:36;1.30;99.90
21563;DHT22;10942;47.894;11.424;2022-11-15T04:25:43;1.30;99.90
21563;DHT22;10942;47.894;11.424;2022-11-15T04:28:28;1.20;99.90
21563;DHT22;10942;47.894;11.424;2022-11-15T04:31:13;1.20;99.90
21563;DHT22;10942;47.894;11.424;2022-11-15T04:33:57;1.20;99.90
21563;DHT22;10942;47.894;11.424;2022-11-15T04:36:41;1.10;99.90
21563;DHT22;10942;47.894;11.424;2022-11-15T04:42:29;1.10;99.90
21563;DHT22;10942;47.894;11.424;2022-11-15T04:45:13;1.10;99.90
21563;DHT22;10942;47.894;11.424;2022-11-15T04:47:57;1.10;99.90
21563;DHT22;10942;47.894;11.424;2022-11-15T04:50:42;1.10;99.90
21563;DHT22;10942;47.894;11.424;2022-11-15T04:53:26;1.00;99.90
21563;DHT22;10942;47.894;11.424;2022-11-15T04:56:10;1.00;99.90
21563;DHT22;10942;47.894;11.424;2022-11-15T04:58:54;0.90;99.90
21563;DHT22;10942;47.894;11.424;2022-11-15T05:01:39;0.90;99.90
21563;DHT22;10942;47.894;11.424;2022-11-15T05:04:23;1.00;99.90
21563;DHT22;10942;47.894;11.424;2022-11-15T05:07:07;1.00;99.90
21563;DHT22;10942;47.894;11.424;2022-11-15T05:09:51;1.00;99.90
21563;DHT22;10942;47.894;11.424;2022-11-15T05:12:36;1.00;99.90
21563;DHT22;10942;47.894;11.424;2022-11-15T05:15:20;1.00;99.90
21563;DHT22;10942;47.894;11.424;2022-11-15T05:18:04;1.00;99.90
21563;DHT22;10942;47.894;11.424;2022-11-15T05:20:49;1.00;99.90
21563;DHT22;10942;47.894;11.424;2022-11-15T05:23:33;1.00;99.90
21563;DHT22;10942;47.894;11.424;2022-11-15T05:26:18;0.90;99.90
21563;DHT22;10942;47.894;11.424;2022-11-15T05:29:02;0.90;99.90
21563;DHT22;10942;47.894;11.424;2022-11-15T05:31:46;1.00;99.90
21563;DHT22;10942;47.894;11.424;2022-11-15T05:34:31;1.00;99.90
21563;DHT22;10942;47.894;11.424;2022-11-15T05:37:16;0.90;99.90
21563;DHT22;10942;47.894;11.424;2022-11-15T05:40:01;0.90;99.90
21563;DHT22;10942;47.894;11.424;2022-11-15T05:42:45;0.90;99.90
21563;DHT22;10942;47.894;11.424;2022-11-15T05:45:32;0.90;99.90
21563;DHT22;10942;47.894;11.424;2022-11-15T05:48:18;0.90;99.90
21563;DHT22;10942;47.894;11.424;2022-11-15T05:51:03;0.90;99.90
21563;DHT22;10942;47.894;11.424;2022-11-15T05:53:50;0.90;99.90
21563;DHT22;10942;47.894;11.424;2022-11-15T05:56:35;0.90;99.90
21563;DHT22;10942;47.894;11.424;2022-11-15T05:59:19;0.80;99.90
21563;DHT22;10942;47.894;11.424;2022-11-15T06:15:48;0.80;99.90
21563;DHT22;10942;47.894;11.424;2022-11-15T06:18:33;0.70;99.90
21563;DHT22;10942;47.894;11.424;2022-11-15T06:21:18;0.70;99.90
21563;DHT22;10942;47.894;11.424;2022-11-15T06:24:02;0.60;99.90
21563;DHT22;10942;47.894;11.424;2022-11-15T06:26:47;0.70;99.90
21563;DHT22;10942;47.894;11.424;2022-11-15T06:29:31;0.70;99.90
21563;DHT22;10942;47.894;11.424;2022-11-15T06:32:16;0.80;99.90
21563;DHT22;10942;47.894;11.424;2022-11-15T06:35:00;0.80;99.90
21563;DHT22;10942;47.894;11.424;2022-11-15T06:37:44;0.80;99.90
21563;DHT22;10942;47.894;11.424;2022-11-15T06:40:28;0.90;99.90
21563;DHT22;10942;47.894;11.424;2022-11-15T06:43:13;0.90;99.90
21563;DHT22;10942;47.894;11.424;2022-11-15T06:45:59;1.00;99.90
21563;DHT22;10942;47.894;11.424;2022-11-15T06:48:43;1.10;99.90
21563;DHT22;10942;47.894;11.424;2022-11-15T06:51:27;1.10;99.90
21563;DHT22;10942;47.894;11.424;2022-11-15T06:54:12;1.10;99.90
21563;DHT22;10942;47.894;11.424;2022-11-15T06:56:59;1.40;99.90
21563;DHT22;10942;47.894;11.424;2022-11-15T06:59:43;1.50;99.90
21563;DHT22;10942;47.894;11.424;2022-11-15T07:02:27;1.80;99.90
21563;DHT22;10942;47.894;11.424;2022-11-15T07:05:12;2.10;99.90
21563;DHT22;10942;47.894;11.424;2022-11-15T07:07:57;2.30;99.90
21563;DHT22;10942;47.894;11.424;2022-11-15T07:10:42;2.40;99.90
21563;DHT22;10942;47.894;11.424;2022-11-15T07:13:27;2.70;99.90
21563;DHT22;10942;47.894;11.424;2022-11-15T07:16:12;3.00;99.90
21563;DHT22;10942;47.894;11.424;2022-11-15T07:18:56;3.00;99.90
21563;DHT22;10942;47.894;11.424;2022-11-15T07:21:40;3.00;99.90
21563;DHT22;10942;47.894;11.424;2022-11-15T07:24:24;2.70;99.90
21563;DHT22;10942;47.894;11.424;2022-11-15T07:27:09;2.80;99.90
21563;DHT22;10942;47.894;11.424;2022-11-15T07:29:53;3.10;99.90
21563;DHT22;10942;47.894;11.424;2022-11-15T07:46:28;3.30;99.90
21563;DHT22;10942;47.894;11.424;2022-11-15T07:49:12;4.80;99.90
21563;DHT22;10942;47.894;11.424;2022-11-15T07:51:57;5.10;99.90
21563;DHT22;10942;47.894;11.424;2022-11-15T07:54:41;5.40;99.90
21563;DHT22;10942;47.894;11.424;2022-11-15T07:57:25;5.70;99.90
21563;DHT22;10942;47.894;11.424;2022-11-15T08:00:10;5.60;99.90
21563;DHT22;10942;47.894;11.424;2022-11-15T08:03:09;5.50;99.90
21563;DHT22;10942;47.894;11.424;2022-11-15T08:05:54;5.50;99.90
21563;DHT22;10942;47.894;11.424;2022-11-15T08:08:38;5.90;99.90
21563;DHT22;10942;47.894;11.424;2022-11-15T08:11:22;6.10;99.90
21563;DHT22;10942;47.894;11.424;2022-11-15T08:14:06;6.40;99.90
21563;DHT22;10942;47.894;11.424;2022-11-15T08:16:51;6.30;99.90
21563;DHT22;10942;47.894;11.424;2022-11-15T08:19:36;6.20;99.90
21563;DHT22;10942;47.894;11.424;2022-11-15T08:22:20;6.10;99.90
21563;DHT22;10942;47.894;11.424;2022-11-15T08:25:05;6.20;99.90
21563;DHT22;10942;47.894;11.424;2022-11-15T08:27:59;6.30;99.90
21563;DHT22;10942;47.894;11.424;2022-11-15T08:30:43;6.70;99.90
21563;DHT22;10942;47.894;11.424;2022-11-15T08:33:30;6.80;99.90
21563;DHT22;10942;47.894;11.424;2022-11-15T08:36:16;6.90;99.90
21563;DHT22;10942;47.894;11.424;2022-11-15T08:39:00;7.10;99.90
21563;DHT22;10942;47.894;11.424;2022-11-15T08:41:47;7.30;99.90
21563;DHT22;10942;47.894;11.424;2022-11-15T08:44:31;7.70;99.90
21563;DHT22;10942;47.894;11.424;2022-11-15T08:47:15;8.00;99.90
21563;DHT22;10942;47.894;11.424;2022-11-15T08:49:59;8.40;99.90
21563;DHT22;10942;47.894;11.424;2022-11-15T08:52:44;8.50;99.90
21563;DHT22;10942;47.894;11.424;2022-11-15T08:55:28;8.70;99.90
21563;DHT22;10942;47.894;11.424;2022-11-15T08:58:12;8.90;99.90
21563;DHT22;10942;47.894;11.424;2022-11-15T09:00:56;9.20;99.90
21563;DHT22;10942;47.894;11.424;2022-11-15T09:03:41;9.40;99.90
21563;DHT22;10942;47.894;11.424;2022-11-15T09:06:25;9.90;99.90
21563;DHT22;10942;47.894;11.424;2022-11-15T09:09:09;10.40;99.90
21563;DHT22;10942;47.894;11.424;2022-11-15T09:17:23;10.70;99.90
21563;DHT22;10942;47.894;11.424;2022-11-15T09:20:10;11.20;99.90
21563;DHT22;10942;47.894;11.424;2022-11-15T09:22:58;11.50;99.90
21563;DHT22;10942;47.894;11.424;2022-11-15T09:25:42;11.90;99.90
21563;DHT22;10942;47.894;11.424;2022-11-15T09:28:27;12.10;99.90
21563;DHT22;10942;47.894;11.424;2022-11-15T09:31:11;12.70;99.90
21563;DHT22;10942;47.894;11.424;2022-11-15T09:33:55;13.00;99.90
21563;DHT22;10942;47.894;11.424;2022-11-15T09:36:39;13.20;99.90
21563;DHT22;10942;47.894;11.424;2022-11-15T09:39:27;13.60;99.90
21563;DHT22;10942;47.894;11.424;2022-11-15T09:42:54;13.90;99.90
21563;DHT22;10942;47.894;11.424;2022-11-15T09:49:04;14.90;99.90
21563;DHT22;10942;47.894;11.424;2022-11-15T09:51:49;15.00;99.90
21563;DHT22;10942;47.894;11.424;2022-11-15T09:54:38;14.70;99.90
21563;DHT22;10942;47.894;11.424;2022-11-15T10:02:13;16.10;99.90
21563;DHT22;10942;47.894;11.424;2022-11-15T10:10:46;17.00;99.90
21563;DHT22;10942;47.894;11.424;2022-11-15T10:13:04;17.30;99.90
21563;DHT22;10942;47.894;11.424;2022-11-15T10:15:30;17.80;99.90
21563;DHT22;10942;47.894;11.424;2022-11-15T10:20:55;17.80;99.90
21563;DHT22;10942;47.894;11.424;2022-11-15T10:23:22;17.90;99.90
21563;DHT22;10942;47.894;11.424;2022-11-15T10:25:52;18.10;99.90
21563;DHT22;10942;47.894;11.424;2022-11-15T10:30:55;18.00;99.90
21563;DHT22;10942;47.894;11.424;2022-11-15T10:33:37;18.60;99.90
21563;DHT22;10942;47.894;11.424;2022-11-15T10:46:27;19.10;99.90
21563;DHT22;10942;47.894;11.424;2022-11-15T10:48:53;18.90;99.90
21563;DHT22;10942;47.894;11.424;2022-11-15T10:51:22;18.40;99.90
21563;DHT22;10942;47.894;11.424;2022-11-15T10:53:51;17.70;99.90
21563;DHT22;10942;47.894;11.424;2022-11-15T10:56:20;17.20;99.90
21563;DHT22;10942;47.894;11.424;2022-11-15T10:58:53;16.40;99.90
21563;DHT22;10942;47.894;11.424;2022-11-15T11:01:22;15.90;99.90
21563;DHT22;10942;47.894;11.424;2022-11-15T11:04:06;15.70;99.90
21563;DHT22;10942;47.894;11.424;2022-11-15T11:06:55;15.20;99.90
21563;DHT22;10942;47.894;11.424;2022-11-15T11:09:33;14.70;99.90
21563;DHT22;10942;47.894;11.424;2022-11-15T11:50:30;13.30;99.90
21563;DHT22;10942;47.894;11.424;2022-11-15T11:53:03;13.20;99.90
21563;DHT22;10942;47.894;11.424;2022-11-15T11:55:38;13.20;99.90
21563;DHT22;10942;47.894;11.424;2022-11-15T11:58:35;13.20;99.90
21563;DHT22;10942;47.894;11.424;2022-11-15T12:03:51;13.20;99.90
21563;DHT22;10942;47.894;11.424;2022-11-15T12:09:20;13.20;99.90
21563;DHT22;10942;47.894;11.424;2022-11-15T12:14:57;13.20;99.90
21563;DHT22;10942;47.894;11.424;2022-11-15T12:17:28;13.20;99.90
21563;DHT22;10942;47.894;11.424;2022-11-15T12:20:06;13.20;99.90
21563;DHT22;10942;47.894;11.424;2022-11-15T12:25:44;13.40;99.90
21563;DHT22;10942;47.894;11.424;2022-11-15T12:31:15;13.40;99.90
21563;DHT22;10942;47.894;11.424;2022-11-15T12:33:44;13.40;99.90
21563;DHT22;10942;47.894;11.424;2022-11-15T12:36:12;13.40;99.90
21563;DHT22;10942;47.894;11.424;2022-11-15T12:38:59;13.40;99.90
21563;DHT22;10942;47.894;11.424;2022-11-15T12:41:34;13.40;99.90
21563;DHT22;10942;47.894;11.424;2022-11-15T12:44:01;13.50;99.90
21563;DHT22;10942;47.894;11.424;2022-11-15T12:59:48;13.80;99.90
21563;DHT22;10942;47.894;11.424;2022-11-15T13:02:31;13.80;99.90
21563;DHT22;10942;47.894;11.424;2022-11-15T13:17:54;13.70;99.90
21563;DHT22;10942;47.894;11.424;2022-11-15T13:20:29;13.70;99.90
21563;DHT22;10942;47.894;11.424;2022-11-15T13:23:09;13.60;99.90
21563;DHT22;10942;47.894;11.424;2022-11-15T13:28:22;13.60;99.90
21563;DHT22;10942;47.894;11.424;2022-11-15T13:30:51;13.50;99.90
21563;DHT22;10942;47.894;11.424;2022-11-15T13:33:35;13.40;99.90
21563;DHT22;10942;47.894;11.424;2022-11-15T13:36:05;13.40;99.90
21563;DHT22;10942;47.894;11.424;2022-11-15T13:38:34;13.30;99.90
21563;DHT22;10942;47.894;11.424;2022-11-15T13:41:13;13.30;99.90
21563;DHT22;10942;47.894;11.424;2022-11-15T13:43:39;13.30;99.90
21563;DHT22;10942;47.894;11.424;2022-11-15T13:48:37;13.30;99.90
21563;DHT22;10942;47.894;11.424;2022-11-15T13:51:06;13.20;99.90
21563;DHT22;10942;47.894;11.424;2022-11-15T13:53:37;13.20;99.90
21563;DHT22;10942;47.894;11.424;2022-11-15T13:56:04;13.20;99.90
21563;DHT22;10942;47.894;11.424;2022-11-15T13:58:30;13.10;99.90
21563;DHT22;10942;47.894;11.424;2022-11-15T14:01:01;13.10;99.90
21563;DHT22;10942;47.894;11.424;2022-11-15T14:03:32;13.00;99.90
21563;DHT22;10942;47.894;11.424;2022-11-15T14:06:08;12.90;99.90
21563;DHT22;10942;47.894;11.424;2022-11-15T14:08:38;12.80;99.90
21563;DHT22;10942;47.894;11.424;2022-11-15T14:11:09;12.80;99.90
21563;DHT22;10942;47.894;11.424;2022-11-15T14:13:35;12.70;99.90
21563;DHT22;10942;47.894;11.424;2022-11-15T14:16:21;12.60;99.90
21563;DHT22;10942;47.894;11.424;2022-11-15T14:18:57;12.50;99.90
21563;DHT22;10942;47.894;11.424;2022-11-15T14:21:23;12.40;99.90
21563;DHT22;10942;47.894;11.424;2022-11-15T14:23:49;12.30;99.90
21563;DHT22;10942;47.894;11.424;2022-11-15T14:26:34;12.20;99.90
21563;DHT22;10942;47.894;11.424;2022-11-15T14:29:25;12.10;99.90
21563;DHT22;10942;47.894;11.424;2022-11-15T14:31:52;12.10;99.90
21563;DHT22;10942;47.894;11.424;2022-11-15T14:34:18;12.00;99.90
21563;DHT22;10942;47.894;11.424;2022-11-15T14:36:44;12.00;99.90
21563;DHT22;10942;47.894;11.424;2022-11-15T14:39:09;12.00;99.90
21563;DHT22;10942;47.894;11.424;2022-11-15T14:41:36;11.90;99.90
21563;DHT22;10942;47.894;11.424;2022-11-15T14:44:04;11.80;99.90
21563;DHT22;10942;47.894;11.424;2022-11-15T14:46:30;11.70;99.90
21563;DHT22;10942;47.894;11.424;2022-11-15T14:48:56;11.70;99.90
21563;DHT22;10942;47.894;11.424;2022-11-15T14:51:21;11.60;99.90
21563;DHT22;10942;47.894;11.424;2022-11-15T14:53:47;11.50;99.90
21563;DHT22;10942;47.894;11.424;2022-11-15T14:56:14;11.50;99.90
21563;DHT22;10942;47.894;11.424;2022-11-15T14:58:40;11.40;99.90
21563;DHT22;10942;47.894;11.424;2022-11-15T15:01:13;11.30;99.90
21563;DHT22;10942;47.894;11.424;2022-11-15T15:03:39;11.30;99.90
21563;DHT22;10942;47.894;11.424;2022-11-15T15:06:05;11.20;99.90
21563;DHT22;10942;47.894;11.424;2022-11-15T15:08:31;11.10;99.90
21563;DHT22;10942;47.894;11.424;2022-11-15T15:10:56;11.10;99.90
21563;DHT22;10942;47.894;11.424;2022-11-15T15:13:23;11.00;99.90
21563;DHT22;10942;47.894;11.424;2022-11-15T15:15:51;10.90;99.90
21563;DHT22;10942;47.894;11.424;2022-11-15T15:18:17;10.80;99.90
21563;DHT22;10942;47.894;11.424;2022-11-15T15:20:44;10.70;99.90
21563;DHT22;10942;47.894;11.424;2022-11-15T15:23:19;10.60;99.90
21563;DHT22;10942;47.894;11.424;2022-11-15T15:25:46;10.60;99.90
21563;DHT22;10942;47.894;11.424;2022-11-15T15:28:13;10.50;99.90
21563;DHT22;10942;47.894;11.424;2022-11-15T15:30:39;10.40;99.90
21563;DHT22;10942;47.894;11.424;2022-11-15T15:33:04;10.30;99.90
21563;DHT22;10942;47.894;11.424;2022-11-15T15:35:33;10.30;99.90
21563;DHT22;10942;47.894;11.424;2022-11-15T15:38:00;10.20;99.90
21563;DHT22;10942;47.894;11.424;2022-11-15T15:40:28;10.10;99.90
21563;DHT22;10942;47.894;11.424;2022-11-15T15:42:53;10.10;99.90
21563;DHT22;10942;47.894;11.424;2022-11-15T15:45:19;10.10;99.90
21563;DHT22;10942;47.894;11.424;2022-11-15T15:47:45;10.00;99.90
21563;DHT22;10942;47.894;11.424;2022-11-15T15:50:24;10.00;99.90
21563;DHT22;10942;47.894;11.424;2022-11-15T15:52:51;9.90;99.90
21563;DHT22;10942;47.894;11.424;2022-11-15T15:55:18;9.90;99.90
21563;DHT22;10942;47.894;11.424;2022-11-15T15:57:43;9.90;99.90
21563;DHT22;10942;47.894;11.424;2022-11-15T16:00:09;9.90;99.90
21563;DHT22;10942;47.894;11.424;2022-11-15T16:02:39;9.80;99.90
21563;DHT22;10942;47.894;11.424;2022-11-15T16:05:05;9.80;99.90
21563;DHT22;10942;47.894;11.424;2022-11-15T16:07:31;9.80;99.90
21563;DHT22;10942;47.894;11.424;2022-11-15T16:09:57;9.80;99.90
21563;DHT22;10942;47.894;11.424;2022-11-15T16:12:30;9.70;99.90
21563;DHT22;10942;47.894;11.424;2022-11-15T16:14:56;9.70;99.90
21563;DHT22;10942;47.894;11.424;2022-11-15T16:17:27;9.60;99.90
21563;DHT22;10942;47.894;11.424;2022-11-15T16:19:53;9.60;99.90
21563;DHT22;10942;47.894;11.424;2022-11-15T16:22:19;9.60;99.90
21563;DHT22;10942;47.894;11.424;2022-11-15T16:24:45;9.60;99.90
21563;DHT22;10942;47.894;11.424;2022-11-15T16:27:16;9.60;99.90
21563;DHT22;10942;47.894;11.424;2022-11-15T16:29:42;9.50;99.90
21563;DHT22;10942;47.894;11.424;2022-11-15T16:32:09;9.50;99.90
21563;DHT22;10942;47.894;11.424;2022-11-15T16:34:34;9.40;99.90
21563;DHT22;10942;47.894;11.424;2022-11-15T16:37:00;9.40;99.90
21563;DHT22;10942;47.894;11.424;2022-11-15T16:39:29;9.30;99.90
21563;DHT22;10942;47.894;11.424;2022-11-15T16:41:59;9.30;99.90
21563;DHT22;10942;47.894;11.424;2022-11-15T16:44:25;9.20;99.90
21563;DHT22;10942;47.894;11.424;2022-11-15T16:46:51;9.20;99.90
21563;DHT22;10942;47.894;11.424;2022-11-15T16:49:18;9.20;99.90
21563;DHT22;10942;47.894;11.424;2022-11-15T16:51:46;9.10;99.90
21563;DHT22;10942;47.894;11.424;2022-11-15T16:54:12;9.10;99.90
21563;DHT22;10942;47.894;11.424;2022-11-15T16:56:38;9.10;99.90
21563;DHT22;10942;47.894;11.424;2022-11-15T16:59:05;9.10;99.90
21563;DHT22;10942;47.894;11.424;2022-11-15T17:01:35;9.00;99.90
21563;DHT22;10942;47.894;11.424;2022-11-15T17:04:03;9.00;99.90
21563;DHT22;10942;47.894;11.424;2022-11-15T17:06:38;9.00;99.90
21563;DHT22;10942;47.894;11.424;2022-11-15T17:09:05;9.00;99.90
21563;DHT22;10942;47.894;11.424;2022-11-15T17:11:32;9.00;99.90
21563;DHT22;10942;47.894;11.424;2022-11-15T17:13:58;9.00;99.90
21563;DHT22;10942;47.894;11.424;2022-11-15T17:16:24;8.90;99.90
21563;DHT22;10942;47.894;11.424;2022-11-15T17:18:51;8.90;99.90
21563;DHT22;10942;47.894;11.424;2022-11-15T17:21:19;8.90;99.90
21563;DHT22;10942;47.894;11.424;2022-11-15T17:23:46;8.80;99.90
21563;DHT22;10942;47.894;11.424;2022-11-15T17:26:13;8.80;99.90
21563;DHT22;10942;47.894;11.424;2022-11-15T17:28:39;8.70;99.90
21563;DHT22;10942;47.894;11.424;2022-11-15T17:31:09;8.70;99.90
21563;DHT22;10942;47.894;11.424;2022-11-15T17:33:36;8.60;99.90
21563;DHT22;10942;47.894;11.424;2022-11-15T17:36:05;8.60;99.90
21563;DHT22;10942;47.894;11.424;2022-11-15T17:38:31;8.70;99.90
21563;DHT22;10942;47.894;11.424;2022-11-15T17:41:12;8.60;99.90
21563;DHT22;10942;47.894;11.424;2022-11-15T17:43:39;8.60;99.90
21563;DHT22;10942;47.894;11.424;2022-11-15T17:46:07;8.60;99.90
21563;DHT22;10942;47.894;11.424;2022-11-15T17:48:33;8.60;99.90
21563;DHT22;10942;47.894;11.424;2022-11-15T17:53:25;8.60;99.90
21563;DHT22;10942;47.894;11.424;2022-11-15T17:55:53;8.50;99.90
21563;DHT22;10942;47.894;11.424;2022-11-15T17:58:19;8.50;99.90
21563;DHT22;10942;47.894;11.424;2022-11-15T18:00:48;8.50;99.90
21563;DHT22;10942;47.894;11.424;2022-11-15T18:03:14;8.50;99.90
21563;DHT22;10942;47.894;11.424;2022-11-15T18:05:40;8.40;99.90
21563;DHT22;10942;47.894;11.424;2022-11-15T18:08:11;8.40;99.90
21563;DHT22;10942;47.894;11.424;2022-11-15T18:10:41;8.30;99.90
21563;DHT22;10942;47.894;11.424;2022-11-15T18:13:06;8.30;99.90
21563;DHT22;10942;47.894;11.424;2022-11-15T18:15:34;8.20;99.90
21563;DHT22;10942;47.894;11.424;2022-11-15T18:20:25;8.10;99.90
21563;DHT22;10942;47.894;11.424;2022-11-15T18:22:52;8.10;99.90
21563;DHT22;10942;47.894;11.424;2022-11-15T18:25:19;8.10;99.90
21563;DHT22;10942;47.894;11.424;2022-11-15T18:27:44;8.10;99.90
21563;DHT22;10942;47.894;11.424;2022-11-15T18:30:10;8.00;99.90
21563;DHT22;10942;47.894;11.424;2022-11-15T18:32:36;7.90;99.90
21563;DHT22;10942;47.894;11.424;2022-11-15T18:35:02;7.90;99.90
21563;DHT22;10942;47.894;11.424;2022-11-15T18:37:28;7.90;99.90
21563;DHT22;10942;47.894;11.424;2022-11-15T18:39:53;7.80;99.90
21563;DHT22;10942;47.894;11.424;2022-11-15T18:42:19;7.80;99.90
21563;DHT22;10942;47.894;11.424;2022-11-15T18:44:44;7.90;99.90
21563;DHT22;10942;47.894;11.424;2022-11-15T18:47:10;7.80;99.90
21563;DHT22;10942;47.894;11.424;2022-11-15T18:49:36;7.80;99.90
21563;DHT22;10942;47.894;11.424;2022-11-15T18:52:01;7.90;99.90
21563;DHT22;10942;47.894;11.424;2022-11-15T18:54:27;7.90;99.90
21563;DHT22;10942;47.894;11.424;2022-11-15T18:56:53;7.80;99.90
21563;DHT22;10942;47.894;11.424;2022-11-15T18:59:18;7.80;99.90
21563;DHT22;10942;47.894;11.424;2022-11-15T19:01:45;7.80;99.90
21563;DHT22;10942;47.894;11.424;2022-11-15T19:04:18;7.80;99.90
21563;DHT22;10942;47.894;11.424;2022-11-15T19:06:45;7.80;99.90
21563;DHT22;10942;47.894;11.424;2022-11-15T19:09:13;7.70;99.90
21563;DHT22;10942;47.894;11.424;2022-11-15T19:11:45;7.70;99.90
21563;DHT22;10942;47.894;11.424;2022-11-15T19:14:14;7.80;99.90
21563;DHT22;10942;47.894;11.424;2022-11-15T19:16:41;7.60;99.90
21563;DHT22;10942;47.894;11.424;2022-11-15T19:19:14;7.60;99.90
21563;DHT22;10942;47.894;11.424;2022-11-15T19:21:41;7.60;99.90
21563;DHT22;10942;47.894;11.424;2022-11-15T19:24:06;7.50;99.90
21563;DHT22;10942;47.894;11.424;2022-11-15T19:26:32;7.50;99.90
21563;DHT22;10942;47.894;11.424;2022-11-15T19:29:01;7.40;99.90
21563;DHT22;10942;47.894;11.424;2022-11-15T19:31:28;7.50;99.90
21563;DHT22;10942;47.894;11.424;2022-11-15T19:33:56;7.50;99.90
21563;DHT22;10942;47.894;11.424;2022-11-15T19:36:26;7.60;99.90
21563;DHT22;10942;47.894;11.424;2022-11-15T19:38:53;7.60;99.90
21563;DHT22;10942;47.894;11.424;2022-11-15T19:41:20;7.60;99.90
21563;DHT22;10942;47.894;11.424;2022-11-15T19:43:47;7.60;99.90
21563;DHT22;10942;47.894;11.424;2022-11-15T19:46:13;7.60;99.90
21563;DHT22;10942;47.894;11.424;2022-11-15T19:48:40;7.60;99.90
21563;DHT22;10942;47.894;11.424;2022-11-15T19:51:09;7.60;99.90